Country
Station

 

Weather  for  Albany, Albany County Airport  -  United States    United States

  
25 °C (77 °F)
    
 
 

Current METAR for Albany, Albany County Airport is :

KALB 171051Z 19004KT 9SM FEW041 SCT055 BKN140 OVC200 25/22 A2982 RMK AO2 LTG DSNT NE AND E SLP094 T02500217

 

This is a report for Albany, Albany County Airport - United States.
 
The report was made 27 minutes ago, at 10:51 UTC .
The wind was blowing at a speed of 2.1 meters per second (4.6 miles per hour) from south (190°).
 
The temperature was 25 °C (77 °F), with a dew-point at 22 °C (72 °F).
The temperature felt like 26 °C (78 °F).
 
The atmospheric pressure was 1010 hPa (29.82 inHg).
The relative humidity was 83.5%.
 
There were a few clouds at a height of 1250 meters (4100 feet), scattered clouds at a height of 1676 meters (5500 feet) and broken clouds at a height of 4267 meters (14000 feet).
 
The overall visibility was 14.5 kilometers (9.0 miles).
 

 
 
 
 

Country :   A   B   C   D   E   F   G   H   I   J   K   L   M   N   O   P   Q   R   S   T   U   V   W   Y   Z

 

Site Info  |  Disclaimer  |  Credits  |  Privacy
Contact us  |  Add to favorites
© 2013-2018 METARs - All rights reserved